createdAt,value
2023-04-02T00:00:13.178Z,991.73
2023-04-02T00:01:13.569Z,991.69
2023-04-02T00:02:13.739Z,991.70
2023-04-02T00:03:14.017Z,991.79
2023-04-02T00:04:13.592Z,991.81
2023-04-02T00:05:13.893Z,991.86
2023-04-02T00:06:12.930Z,991.83
2023-04-02T00:07:12.825Z,991.82
2023-04-02T00:08:13.840Z,991.84
2023-04-02T00:09:13.728Z,991.87
2023-04-02T00:10:13.932Z,991.92
2023-04-02T00:11:12.900Z,991.93
2023-04-02T00:12:12.786Z,991.93
2023-04-02T00:13:13.675Z,991.90
2023-04-02T00:14:13.815Z,991.96
2023-04-02T00:15:13.720Z,991.96
2023-04-02T00:16:13.747Z,992.00
2023-04-02T00:17:13.817Z,991.96
2023-04-02T00:18:14.202Z,992.07
2023-04-02T00:19:13.193Z,992.05
2023-04-02T00:20:13.096Z,992.05
2023-04-02T00:21:13.211Z,992.14
2023-04-02T00:22:13.084Z,992.13
2023-04-02T00:23:13.208Z,992.13
2023-04-02T00:24:19.022Z,992.23
2023-04-02T00:25:13.140Z,992.19
2023-04-02T00:26:12.962Z,992.17
2023-04-02T00:27:13.177Z,992.24
2023-04-02T00:28:13.213Z,992.27
2023-04-02T00:29:13.104Z,992.31
2023-04-02T00:30:12.949Z,992.30
2023-04-02T00:31:13.132Z,992.30
2023-04-02T00:32:13.260Z,992.34
2023-04-02T00:33:13.254Z,992.34
2023-04-02T00:34:13.495Z,992.43
2023-04-02T00:35:13.534Z,992.45
2023-04-02T00:36:13.503Z,992.46
2023-04-02T00:37:13.593Z,992.44
2023-04-02T00:38:13.589Z,992.53
2023-04-02T00:39:13.660Z,992.51
2023-04-02T00:40:13.719Z,992.54
2023-04-02T00:41:13.651Z,992.52
2023-04-02T00:42:13.556Z,992.60
2023-04-02T00:43:13.491Z,992.61
2023-04-02T00:44:13.341Z,992.62
2023-04-02T00:45:13.681Z,992.67
2023-04-02T00:46:13.678Z,992.71
2023-04-02T00:47:13.736Z,992.73
2023-04-02T00:48:13.652Z,992.74
2023-04-02T00:49:13.510Z,992.73
2023-04-02T00:50:13.643Z,992.72
2023-04-02T00:51:13.604Z,992.68
2023-04-02T00:52:13.509Z,992.79
2023-04-02T00:53:13.351Z,992.81
2023-04-02T00:54:13.271Z,992.78
2023-04-02T00:55:13.284Z,992.80
2023-04-02T00:56:13.380Z,992.80
2023-04-02T00:57:13.262Z,992.88
2023-04-02T00:58:13.579Z,992.88
2023-04-02T00:59:13.765Z,992.91
2023-04-02T01:00:13.704Z,992.98
2023-04-02T01:01:13.645Z,992.96
2023-04-02T01:02:13.641Z,993.00
2023-04-02T01:03:13.648Z,993.04
2023-04-02T01:04:13.845Z,992.97
2023-04-02T01:05:13.086Z,993.02
2023-04-02T01:06:13.167Z,993.12
2023-04-02T01:07:13.718Z,993.08
2023-04-02T01:08:13.684Z,993.11
2023-04-02T01:09:13.610Z,993.12
2023-04-02T01:10:13.542Z,993.15
2023-04-02T01:11:13.476Z,993.21
2023-04-02T01:12:13.337Z,993.22
2023-04-02T01:13:13.231Z,993.21
2023-04-02T01:14:13.125Z,993.23
2023-04-02T01:15:12.982Z,993.27
2023-04-02T01:16:13.160Z,993.23
2023-04-02T01:17:13.293Z,993.29
2023-04-02T01:18:13.296Z,993.20
2023-04-02T01:19:13.198Z,993.23
2023-04-02T01:20:13.086Z,993.20
2023-04-02T01:21:13.048Z,993.32
2023-04-02T01:22:12.908Z,993.27
2023-04-02T01:23:12.926Z,993.33
2023-04-02T01:24:12.970Z,993.34
2023-04-02T01:25:12.908Z,993.33
2023-04-02T01:26:12.842Z,993.40
2023-04-02T01:27:13.768Z,993.30
2023-04-02T01:28:13.992Z,993.35
2023-04-02T01:29:12.877Z,993.42
2023-04-02T01:30:12.896Z,993.45
2023-04-02T01:31:13.187Z,993.49
2023-04-02T01:32:13.231Z,993.52
2023-04-02T01:33:13.282Z,993.50
2023-04-02T01:34:13.289Z,993.50
2023-04-02T01:35:13.197Z,993.50
2023-04-02T01:36:13.493Z,993.53
2023-04-02T01:37:13.528Z,993.54
2023-04-02T01:38:13.329Z,993.63
2023-04-02T01:39:13.646Z,993.60
2023-04-02T01:40:13.539Z,993.58
2023-04-02T01:41:13.747Z,993.61
2023-04-02T01:42:13.679Z,993.65
2023-04-02T01:43:13.946Z,993.71
2023-04-02T01:44:13.070Z,993.70
2023-04-02T01:45:12.993Z,993.72
2023-04-02T01:46:12.871Z,993.72
2023-04-02T01:47:13.925Z,993.77
2023-04-02T01:48:12.956Z,993.75
2023-04-02T01:49:12.864Z,993.78
2023-04-02T01:50:12.762Z,993.82
2023-04-02T01:51:13.648Z,993.82
2023-04-02T01:52:13.749Z,993.83
2023-04-02T01:53:13.616Z,993.72
2023-04-02T01:54:13.927Z,993.90
2023-04-02T01:55:13.202Z,993.88
2023-04-02T01:56:13.680Z,993.91
2023-04-02T01:57:13.829Z,994.02
2023-04-02T01:58:13.917Z,993.96
2023-04-02T01:59:12.976Z,993.93
2023-04-02T02:00:12.866Z,993.94
2023-04-02T02:01:12.807Z,994.05
2023-04-02T02:02:13.925Z,994.05
2023-04-02T02:03:12.883Z,994.10
2023-04-02T02:04:12.852Z,994.12
2023-04-02T02:05:14.189Z,994.13
2023-04-02T02:06:13.027Z,994.16
2023-04-02T02:07:13.092Z,994.21
2023-04-02T02:08:12.934Z,994.17
2023-04-02T02:09:12.806Z,994.18
2023-04-02T02:10:13.627Z,994.22
2023-04-02T02:11:13.610Z,994.20
2023-04-02T02:12:13.434Z,994.24
2023-04-02T02:13:13.227Z,994.23
2023-04-02T02:14:13.161Z,994.24
2023-04-02T02:15:13.150Z,994.26
2023-04-02T02:16:13.181Z,994.24
2023-04-02T02:17:13.107Z,994.30
2023-04-02T02:18:13.032Z,994.32
2023-04-02T02:19:12.936Z,994.28
2023-04-02T02:20:12.839Z,994.31
2023-04-02T02:21:13.789Z,994.32
2023-04-02T02:22:14.075Z,994.34
2023-04-02T02:23:12.969Z,994.37
2023-04-02T02:24:12.844Z,994.39
2023-04-02T02:25:13.720Z,994.44
2023-04-02T02:26:18.669Z,994.42
2023-04-02T02:27:13.627Z,994.35
2023-04-02T02:28:13.577Z,994.46
2023-04-02T02:29:13.470Z,994.47
2023-04-02T02:30:13.508Z,994.49
2023-04-02T02:31:13.433Z,994.54
2023-04-02T02:32:13.417Z,994.54
2023-04-02T02:33:13.598Z,994.53
2023-04-02T02:34:13.751Z,994.58
2023-04-02T02:35:13.562Z,994.62
2023-04-02T02:36:13.809Z,994.65
2023-04-02T02:37:13.928Z,994.65
2023-04-02T02:38:12.885Z,994.74
2023-04-02T02:39:12.936Z,994.74
2023-04-02T02:40:12.978Z,994.72
2023-04-02T02:41:13.278Z,994.73
2023-04-02T02:42:13.221Z,994.73
2023-04-02T02:43:13.208Z,994.79
2023-04-02T02:44:18.177Z,994.77
2023-04-02T02:45:13.090Z,994.74
2023-04-02T02:46:12.972Z,994.84
2023-04-02T02:47:13.062Z,994.83
2023-04-02T02:48:13.375Z,994.87
2023-04-02T02:49:13.344Z,994.89
2023-04-02T02:50:13.209Z,994.89
2023-04-02T02:51:15.157Z,994.34
2023-04-02T02:52:13.530Z,994.87
2023-04-02T02:53:13.614Z,994.94
2023-04-02T02:54:13.957Z,995.00
2023-04-02T02:55:12.965Z,994.97
2023-04-02T02:56:13.084Z,995.04
2023-04-02T02:57:13.380Z,995.06
2023-04-02T02:58:13.642Z,995.06
2023-04-02T02:59:13.886Z,995.10
2023-04-02T03:00:12.888Z,995.12
2023-04-02T03:01:13.049Z,995.17
2023-04-02T03:02:12.881Z,995.14
2023-04-02T03:03:13.162Z,995.14
2023-04-02T03:04:13.188Z,995.18
2023-04-02T03:05:13.198Z,995.21
2023-04-02T03:06:13.052Z,995.12
2023-04-02T03:07:12.914Z,995.27
2023-04-02T03:08:12.900Z,995.24
2023-04-02T03:09:13.042Z,995.26
2023-04-02T03:10:13.251Z,995.35
2023-04-02T03:11:13.212Z,995.37
2023-04-02T03:12:13.402Z,995.35
2023-04-02T03:13:13.430Z,995.33
2023-04-02T03:14:13.414Z,995.35
2023-04-02T03:15:13.420Z,995.39
2023-04-02T03:16:13.358Z,995.43
2023-04-02T03:17:13.257Z,995.42
2023-04-02T03:18:13.663Z,995.46
2023-04-02T03:19:13.925Z,995.45
2023-04-02T03:20:12.782Z,995.45
2023-04-02T03:21:13.867Z,995.45
2023-04-02T03:22:13.729Z,995.47
2023-04-02T03:23:14.001Z,995.58
2023-04-02T03:24:12.813Z,995.55
2023-04-02T03:25:14.016Z,995.61
2023-04-02T03:26:12.901Z,995.57
2023-04-02T03:27:12.965Z,995.66
2023-04-02T03:28:12.789Z,995.63
2023-04-02T03:29:13.648Z,995.64
2023-04-02T03:30:13.501Z,995.60
2023-04-02T03:31:13.508Z,995.65
2023-04-02T03:32:13.554Z,995.70
2023-04-02T03:33:13.372Z,995.69
2023-04-02T03:34:13.556Z,995.70
2023-04-02T03:35:13.462Z,995.77
2023-04-02T03:36:13.399Z,995.74
2023-04-02T03:37:13.343Z,995.77
2023-04-02T03:38:13.414Z,995.77
2023-04-02T03:39:13.262Z,995.83
2023-04-02T03:40:13.236Z,995.83
2023-04-02T03:41:13.378Z,995.86
2023-04-02T03:42:13.295Z,995.90
2023-04-02T03:43:13.278Z,995.92
2023-04-02T03:44:13.462Z,995.96
2023-04-02T03:45:13.614Z,995.94
2023-04-02T03:46:13.928Z,995.96
2023-04-02T03:47:13.291Z,996.00
2023-04-02T03:48:13.536Z,996.04
2023-04-02T03:49:13.741Z,996.02
2023-04-02T03:50:13.740Z,996.11
2023-04-02T03:51:14.079Z,996.18
2023-04-02T03:52:12.958Z,996.13
2023-04-02T03:53:13.166Z,996.18
2023-04-02T03:54:13.218Z,996.18
2023-04-02T03:55:13.391Z,996.29
2023-04-02T03:56:13.513Z,996.24
2023-04-02T03:57:13.833Z,996.31
2023-04-02T03:58:14.020Z,996.29
2023-04-02T03:59:12.961Z,996.34
2023-04-02T04:00:13.006Z,996.38
2023-04-02T04:01:13.294Z,996.36
2023-04-02T04:02:13.520Z,996.33
2023-04-02T04:03:13.852Z,996.37
2023-04-02T04:04:12.754Z,996.37
2023-04-02T04:05:13.705Z,996.41
2023-04-02T04:06:13.656Z,996.43
2023-04-02T04:07:13.698Z,996.41
2023-04-02T04:08:13.677Z,996.47
2023-04-02T04:09:13.991Z,996.47
2023-04-02T04:10:13.099Z,996.55
2023-04-02T04:11:13.084Z,996.47
2023-04-02T04:12:13.010Z,996.55
2023-04-02T04:13:12.916Z,996.56
2023-04-02T04:14:12.900Z,996.60
2023-04-02T04:15:12.698Z,996.61
2023-04-02T04:16:13.670Z,996.62
2023-04-02T04:17:13.848Z,996.67
2023-04-02T04:18:12.801Z,996.60
2023-04-02T04:19:13.683Z,996.66
2023-04-02T04:20:13.790Z,996.72
2023-04-02T04:21:13.640Z,996.70
2023-04-02T04:22:13.748Z,996.75
2023-04-02T04:23:13.652Z,996.75
2023-04-02T04:24:13.742Z,996.79
2023-04-02T04:25:13.647Z,996.80
2023-04-02T04:26:13.665Z,996.88
2023-04-02T04:27:13.602Z,996.83
2023-04-02T04:28:13.466Z,996.91
2023-04-02T04:29:13.444Z,996.82
2023-04-02T04:30:13.584Z,996.84
2023-04-02T04:31:13.620Z,996.95
2023-04-02T04:32:13.583Z,997.01
2023-04-02T04:33:13.683Z,996.96
2023-04-02T04:34:14.122Z,997.04
2023-04-02T04:35:13.165Z,997.05
2023-04-02T04:36:13.542Z,997.08
2023-04-02T04:37:13.591Z,997.09
2023-04-02T04:38:13.405Z,997.09
2023-04-02T04:39:13.746Z,997.13
2023-04-02T04:40:13.554Z,997.16
2023-04-02T04:41:13.619Z,997.14
2023-04-02T04:42:13.407Z,997.21
2023-04-02T04:43:13.381Z,997.22
2023-04-02T04:44:13.296Z,997.22
2023-04-02T04:45:13.392Z,997.30
2023-04-02T04:46:13.958Z,997.29
2023-04-02T04:47:13.307Z,997.31
2023-04-02T04:48:13.387Z,997.36
2023-04-02T04:49:13.565Z,997.37
2023-04-02T04:50:13.461Z,997.40
2023-04-02T04:51:13.459Z,997.48
2023-04-02T04:52:13.340Z,997.53
2023-04-02T04:53:13.243Z,997.50
2023-04-02T04:54:13.369Z,997.55
2023-04-02T04:55:15.404Z,997.54
2023-04-02T04:56:19.278Z,997.56
2023-04-02T04:57:14.197Z,997.63
2023-04-02T04:58:13.299Z,997.62
2023-04-02T04:59:13.329Z,997.68
2023-04-02T05:00:13.261Z,997.71
2023-04-02T05:01:13.148Z,997.74
2023-04-02T05:02:13.168Z,997.69
2023-04-02T05:03:14.206Z,997.73
2023-04-02T05:04:13.208Z,997.76
2023-04-02T05:05:13.148Z,997.76
2023-04-02T05:06:13.107Z,997.86
2023-04-02T05:07:13.195Z,997.87
2023-04-02T05:08:13.229Z,997.88
2023-04-02T05:09:13.546Z,997.89
2023-04-02T05:10:13.505Z,997.91
2023-04-02T05:11:13.757Z,997.92
2023-04-02T05:12:13.552Z,997.95
2023-04-02T05:13:13.871Z,997.96
2023-04-02T05:14:13.874Z,998.00
2023-04-02T05:15:13.824Z,997.99
2023-04-02T05:16:19.093Z,998.05
2023-04-02T05:17:13.370Z,998.09
2023-04-02T05:18:13.919Z,998.09
2023-04-02T05:19:18.264Z,998.09
2023-04-02T05:20:14.342Z,998.10
2023-04-02T05:21:13.828Z,998.13
2023-04-02T05:22:13.771Z,998.17
2023-04-02T05:23:14.285Z,998.22
2023-04-02T05:24:13.937Z,998.23
2023-04-02T05:25:12.974Z,998.26
2023-04-02T05:26:12.949Z,998.29
2023-04-02T05:27:12.864Z,998.38
2023-04-02T05:28:14.065Z,998.38
2023-04-02T05:29:18.231Z,998.45
2023-04-02T05:30:13.112Z,998.41
2023-04-02T05:31:13.199Z,998.40
2023-04-02T05:32:14.190Z,998.49
2023-04-02T05:33:13.247Z,998.49
2023-04-02T05:34:13.474Z,998.52
2023-04-02T05:35:13.613Z,998.47
2023-04-02T05:36:13.936Z,998.57
2023-04-02T05:37:13.007Z,998.56
2023-04-02T05:38:13.083Z,998.53
2023-04-02T05:39:13.361Z,998.54
2023-04-02T05:40:13.366Z,998.47
2023-04-02T05:41:13.265Z,998.60
2023-04-02T05:42:13.587Z,998.61
2023-04-02T05:43:13.494Z,998.60
2023-04-02T05:44:13.338Z,998.67
2023-04-02T05:45:13.470Z,998.68
2023-04-02T05:46:13.314Z,998.66
2023-04-02T05:47:13.270Z,998.75
2023-04-02T05:48:13.152Z,998.75
2023-04-02T05:49:13.055Z,998.70
2023-04-02T05:50:13.228Z,998.70
2023-04-02T05:51:13.127Z,998.72
2023-04-02T05:52:12.995Z,998.78
2023-04-02T05:53:12.890Z,998.80
2023-04-02T05:54:13.952Z,998.85
2023-04-02T05:55:13.136Z,998.83
2023-04-02T05:56:13.191Z,998.90
2023-04-02T05:57:13.157Z,998.91
2023-04-02T05:58:34.714Z,998.92
2023-04-02T05:59:13.443Z,998.89
2023-04-02T06:00:13.379Z,998.94
2023-04-02T06:01:13.445Z,998.97
2023-04-02T06:02:13.604Z,999.01
2023-04-02T06:03:13.898Z,999.03
2023-04-02T06:04:12.921Z,999.06
2023-04-02T06:05:12.865Z,999.12
2023-04-02T06:06:14.776Z,999.10
2023-04-02T06:07:13.852Z,999.15
2023-04-02T06:08:13.687Z,999.15
2023-04-02T06:09:14.016Z,999.16
2023-04-02T06:10:13.960Z,999.22
2023-04-02T06:11:12.814Z,999.21
2023-04-02T06:12:13.852Z,999.21
2023-04-02T06:13:13.764Z,999.23
2023-04-02T06:14:13.914Z,999.29
2023-04-02T06:15:12.848Z,999.27
2023-04-02T06:16:13.986Z,999.31
2023-04-02T06:17:13.067Z,999.36
2023-04-02T06:18:13.217Z,999.36
2023-04-02T06:19:13.463Z,999.37
2023-04-02T06:20:13.444Z,999.38
2023-04-02T06:21:13.380Z,999.49
2023-04-02T06:22:13.162Z,999.49
2023-04-02T06:23:13.112Z,999.51
2023-04-02T06:24:13.056Z,999.55
2023-04-02T06:25:12.947Z,999.51
2023-04-02T06:26:12.898Z,999.50
2023-04-02T06:27:12.911Z,999.60
2023-04-02T06:28:13.134Z,999.63
2023-04-02T06:29:18.076Z,999.69
2023-04-02T06:30:13.412Z,999.67
2023-04-02T06:31:13.536Z,999.70
2023-04-02T06:32:13.584Z,999.75
2023-04-02T06:33:13.509Z,999.78
2023-04-02T06:34:18.352Z,999.81
2023-04-02T06:35:13.423Z,999.81
2023-04-02T06:36:13.658Z,999.87
2023-04-02T06:37:13.780Z,999.82
2023-04-02T06:38:13.760Z,999.90
2023-04-02T06:39:13.565Z,999.91
2023-04-02T06:40:13.527Z,999.84
2023-04-02T06:41:13.663Z,999.98
2023-04-02T06:42:13.562Z,999.97
2023-04-02T06:43:13.382Z,1000.01
2023-04-02T06:44:13.347Z,1000.06
2023-04-02T06:45:13.379Z,1000.05
2023-04-02T06:46:13.387Z,999.99
2023-04-02T06:47:13.539Z,1000.02
2023-04-02T06:48:13.500Z,1000.11
2023-04-02T06:49:13.934Z,1000.09
2023-04-02T06:50:12.818Z,1000.12
2023-04-02T06:51:13.731Z,1000.12
2023-04-02T06:52:13.920Z,1000.14
2023-04-02T06:53:13.070Z,1000.15
2023-04-02T06:54:13.005Z,1000.13
2023-04-02T06:55:12.995Z,1000.21
2023-04-02T06:56:13.007Z,1000.20
2023-04-02T06:57:13.036Z,1000.23
2023-04-02T06:58:13.151Z,1000.24
2023-04-02T06:59:13.016Z,1000.25
2023-04-02T07:00:13.088Z,1000.27
2023-04-02T07:01:13.363Z,1000.29
2023-04-02T07:02:13.706Z,1000.32
2023-04-02T07:03:13.632Z,1000.32
2023-04-02T07:04:13.785Z,1000.36
2023-04-02T07:05:13.984Z,1000.41
2023-04-02T07:06:13.022Z,1000.41
2023-04-02T07:07:13.585Z,1000.45
2023-04-02T07:08:13.459Z,1000.44
2023-04-02T07:09:13.264Z,1000.47
2023-04-02T07:10:13.134Z,1000.47
2023-04-02T07:11:13.411Z,1000.54
2023-04-02T07:12:13.275Z,1000.56
2023-04-02T07:13:13.369Z,1000.59
2023-04-02T07:14:13.328Z,1000.61
2023-04-02T07:16:13.415Z,1000.64
2023-04-02T07:17:13.534Z,1000.68
2023-04-02T07:18:13.495Z,1000.67
2023-04-02T07:19:13.531Z,1000.69
2023-04-02T07:20:14.044Z,1000.73
2023-04-02T07:21:13.005Z,1000.79
2023-04-02T07:22:13.022Z,1000.79
2023-04-02T07:23:13.711Z,1000.85
2023-04-02T07:24:14.035Z,1000.81
2023-04-02T07:25:13.214Z,1000.84
2023-04-02T07:26:13.402Z,1000.86
2023-04-02T07:27:13.466Z,1000.88
2023-04-02T07:28:13.369Z,1000.88
2023-04-02T07:29:13.302Z,1000.89
2023-04-02T07:30:13.259Z,1000.85
2023-04-02T07:31:13.250Z,1000.95
2023-04-02T07:32:13.197Z,1000.98
2023-04-02T07:33:13.286Z,1000.96
2023-04-02T07:34:13.346Z,1001.04
2023-04-02T07:35:13.345Z,1001.00
2023-04-02T07:36:13.294Z,1001.01
2023-04-02T07:37:13.427Z,1001.04
2023-04-02T07:38:13.446Z,1001.08
2023-04-02T07:39:13.724Z,1001.06
2023-04-02T07:40:13.788Z,1001.12
2023-04-02T07:41:13.963Z,1001.12
2023-04-02T07:42:12.917Z,1001.14
2023-04-02T07:43:12.881Z,1001.14
2023-04-02T07:44:12.839Z,1001.17
2023-04-02T07:45:13.807Z,1001.24
2023-04-02T07:46:13.825Z,1001.22
2023-04-02T07:47:13.906Z,1001.24
2023-04-02T07:48:13.184Z,1001.29
2023-04-02T07:49:13.182Z,1001.29
2023-04-02T07:50:13.044Z,1001.33
2023-04-02T07:51:13.151Z,1001.29
2023-04-02T07:52:13.197Z,1001.36
2023-04-02T07:53:13.239Z,1001.41
2023-04-02T07:54:13.521Z,1001.41
2023-04-02T07:55:13.981Z,1001.44
2023-04-02T07:56:12.975Z,1001.48
2023-04-02T07:57:13.325Z,1001.49
2023-04-02T07:58:13.378Z,1001.45
2023-04-02T07:59:13.363Z,1001.49
2023-04-02T08:00:13.171Z,1001.53
2023-04-02T08:01:13.148Z,1001.54
2023-04-02T08:02:13.209Z,1001.53
2023-04-02T08:03:13.370Z,1001.55
2023-04-02T08:04:13.463Z,1001.53
2023-04-02T08:05:13.524Z,1001.53
2023-04-02T08:06:13.818Z,1001.64
2023-04-02T08:07:13.724Z,1001.66
2023-04-02T08:08:14.654Z,1001.70
2023-04-02T08:09:13.963Z,1001.68
2023-04-02T08:10:13.020Z,1001.65
2023-04-02T08:11:18.205Z,1001.72
2023-04-02T08:12:13.046Z,1001.78
2023-04-02T08:13:13.085Z,1001.71
2023-04-02T08:14:13.149Z,1001.76
2023-04-02T08:15:13.080Z,1001.73
2023-04-02T08:16:13.031Z,1001.84
2023-04-02T08:17:13.076Z,1001.83
2023-04-02T08:18:13.165Z,1001.84
2023-04-02T08:19:13.372Z,1001.88
2023-04-02T08:20:13.631Z,1001.92
2023-04-02T08:21:16.186Z,1001.81
2023-04-02T08:22:13.607Z,1001.91
2023-04-02T08:23:13.662Z,1001.89
2023-04-02T08:24:14.775Z,1001.99
2023-04-02T08:25:13.825Z,1001.99
2023-04-02T08:26:13.781Z,1001.97
2023-04-02T08:27:14.075Z,1002.05
2023-04-02T08:28:13.220Z,1002.06
2023-04-02T08:29:13.298Z,1002.12
2023-04-02T08:30:13.776Z,1002.09
2023-04-02T08:31:13.828Z,1002.05
2023-04-02T08:32:13.751Z,1002.17
2023-04-02T08:33:18.831Z,1002.13
2023-04-02T08:34:13.612Z,1002.16
2023-04-02T08:35:18.654Z,1002.20
2023-04-02T08:36:13.883Z,1002.10
2023-04-02T08:37:12.786Z,1002.20
2023-04-02T08:38:13.713Z,1002.22
2023-04-02T08:39:13.612Z,1002.23
2023-04-02T08:40:13.562Z,1002.23
2023-04-02T08:41:13.830Z,1002.21
2023-04-02T08:42:13.829Z,1002.33
2023-04-02T08:43:13.979Z,1002.33
2023-04-02T08:44:13.501Z,1002.31
2023-04-02T08:45:24.390Z,1002.32
2023-04-02T08:46:13.296Z,1002.36
2023-04-02T08:47:13.430Z,1002.42
2023-04-02T08:48:13.349Z,1002.28
2023-04-02T08:49:13.307Z,1002.45
2023-04-02T08:50:13.573Z,1002.39
2023-04-02T08:51:13.553Z,1002.44
2023-04-02T08:52:13.486Z,1002.46
2023-04-02T08:53:13.417Z,1002.43
2023-04-02T08:54:13.442Z,1002.49
2023-04-02T08:55:13.727Z,1002.48
2023-04-02T08:56:13.866Z,1002.47
2023-04-02T08:57:13.700Z,1002.56
2023-04-02T08:58:13.565Z,1002.49
2023-04-02T08:59:13.462Z,1002.59
2023-04-02T09:00:13.479Z,1002.56
2023-04-02T09:01:13.337Z,1002.62
2023-04-02T09:02:13.536Z,1002.64
2023-04-02T09:03:13.903Z,1002.67
2023-04-02T09:04:13.450Z,1002.68
2023-04-02T09:05:13.819Z,1002.70
2023-04-02T09:06:14.765Z,1002.76
2023-04-02T09:07:13.714Z,1002.76
2023-04-02T09:08:13.838Z,1002.82
2023-04-02T09:09:14.036Z,1002.80
2023-04-02T09:10:13.278Z,1002.86
2023-04-02T09:11:13.347Z,1002.78
2023-04-02T09:12:13.824Z,1002.85
2023-04-02T09:13:13.760Z,1002.84
2023-04-02T09:14:18.687Z,1002.82
2023-04-02T09:15:13.657Z,1002.84
2023-04-02T09:16:14.039Z,1002.88
2023-04-02T09:17:12.984Z,1002.92
2023-04-02T09:18:18.218Z,1002.96
2023-04-02T09:19:13.121Z,1002.96
2023-04-02T09:20:13.137Z,1002.90
2023-04-02T09:21:13.229Z,1002.98
2023-04-02T09:22:13.198Z,1003.05
2023-04-02T09:23:13.230Z,1002.98
2023-04-02T09:24:13.048Z,1002.96
2023-04-02T09:25:13.328Z,1003.05
2023-04-02T09:26:13.601Z,1003.04
2023-04-02T09:27:13.704Z,1003.04
2023-04-02T09:28:13.550Z,1003.07
2023-04-02T09:29:13.491Z,1003.07
2023-04-02T09:30:13.354Z,1003.15
2023-04-02T09:31:14.195Z,1003.10
2023-04-02T09:32:13.064Z,1003.16
2023-04-02T09:33:13.175Z,1003.19
2023-04-02T09:34:13.088Z,1003.23
2023-04-02T09:35:24.525Z,1003.22
2023-04-02T09:36:14.470Z,1003.11
2023-04-02T09:37:12.980Z,1003.24
2023-04-02T09:38:17.976Z,1003.33
2023-04-02T09:39:12.889Z,1003.34
2023-04-02T09:40:12.871Z,1003.34
2023-04-02T09:41:14.099Z,1003.34
2023-04-02T09:42:13.107Z,1003.35
2023-04-02T09:43:13.040Z,1003.37
2023-04-02T09:44:13.007Z,1003.45
2023-04-02T09:45:13.350Z,1003.39
2023-04-02T09:46:13.760Z,1003.43
2023-04-02T09:47:13.928Z,1003.46
2023-04-02T09:48:13.266Z,1003.42
2023-04-02T09:49:13.465Z,1003.44
2023-04-02T09:50:13.364Z,1003.49
2023-04-02T09:51:13.786Z,1003.48
2023-04-02T09:52:13.810Z,1003.50
2023-04-02T09:53:13.846Z,1003.50
2023-04-02T09:54:13.854Z,1003.54
2023-04-02T09:55:14.101Z,1003.46
2023-04-02T09:56:17.981Z,1003.50
2023-04-02T09:57:13.070Z,1003.65
2023-04-02T09:58:13.312Z,1003.60
2023-04-02T09:59:13.635Z,1003.69
2023-04-02T10:00:29.895Z,1003.62
2023-04-02T10:01:13.224Z,1003.69
2023-04-02T10:02:13.133Z,1003.71
2023-04-02T10:03:12.981Z,1003.77
2023-04-02T10:04:12.857Z,1003.74
2023-04-02T10:05:13.185Z,1003.77
2023-04-02T10:06:13.885Z,1003.82
2023-04-02T10:07:12.921Z,1003.84
2023-04-02T10:08:12.953Z,1003.82
2023-04-02T10:09:12.896Z,1003.88
2023-04-02T10:10:12.841Z,1003.88
2023-04-02T10:11:13.874Z,1003.87
2023-04-02T10:12:13.810Z,1003.96
2023-04-02T10:13:14.269Z,1003.97
2023-04-02T10:14:13.410Z,1003.97
2023-04-02T10:15:13.855Z,1004.01
2023-04-02T10:16:13.936Z,1004.02
2023-04-02T10:17:14.081Z,1003.99
2023-04-02T10:18:13.413Z,1004.00
2023-04-02T10:19:13.363Z,1004.04
2023-04-02T10:20:13.531Z,1004.07
2023-04-02T10:21:13.505Z,1004.10
2023-04-02T10:22:13.578Z,1004.12
2023-04-02T10:23:13.438Z,1004.16
2023-04-02T10:24:13.673Z,1004.11
2023-04-02T10:25:13.593Z,1004.07
2023-04-02T10:26:13.491Z,1004.08
2023-04-02T10:27:13.405Z,1004.14
2023-04-02T10:28:13.308Z,1004.14
2023-04-02T10:29:13.348Z,1004.18
2023-04-02T10:30:13.372Z,1004.24
2023-04-02T10:31:13.424Z,1004.17
2023-04-02T10:32:13.862Z,1004.28
2023-04-02T10:33:13.938Z,1004.22
2023-04-02T10:34:12.869Z,1004.30
2023-04-02T10:35:13.840Z,1004.33
2023-04-02T10:36:14.106Z,1004.39
2023-04-02T10:37:14.498Z,1004.44
2023-04-02T10:38:13.707Z,1004.44
2023-04-02T10:39:14.095Z,1004.47
2023-04-02T10:40:13.093Z,1004.49
2023-04-02T10:41:13.293Z,1004.49
2023-04-02T10:42:13.463Z,1004.54
2023-04-02T10:43:13.452Z,1004.42
2023-04-02T10:44:20.155Z,1004.54
2023-04-02T10:45:13.769Z,1004.53
2023-04-02T10:46:14.078Z,1004.54
2023-04-02T10:47:13.209Z,1004.47
2023-04-02T10:48:13.215Z,1004.57
2023-04-02T10:49:13.104Z,1004.55
2023-04-02T10:50:13.061Z,1004.58
2023-04-02T10:51:13.025Z,1004.56
2023-04-02T10:52:13.056Z,1004.61
2023-04-02T10:53:13.333Z,1004.65
2023-04-02T10:54:13.610Z,1004.58
2023-04-02T10:55:13.823Z,1004.61
2023-04-02T10:56:14.177Z,1004.62
2023-04-02T10:57:13.230Z,1004.66
2023-04-02T10:58:13.206Z,1004.66
2023-04-02T10:59:13.364Z,1004.64
2023-04-02T11:00:13.193Z,1004.62
2023-04-02T11:01:13.147Z,1004.65
2023-04-02T11:02:13.121Z,1004.68
2023-04-02T11:03:18.540Z,1004.70
2023-04-02T11:04:14.307Z,1004.73
2023-04-02T11:05:13.460Z,1004.69
2023-04-02T11:06:13.760Z,1004.67
2023-04-02T11:07:15.015Z,1004.73
2023-04-02T11:08:13.464Z,1004.76
2023-04-02T11:09:13.622Z,1004.72
2023-04-02T11:10:13.500Z,1004.78
2023-04-02T11:11:13.656Z,1004.78
2023-04-02T11:12:13.606Z,1004.79
2023-04-02T11:13:13.435Z,1004.76
2023-04-02T11:14:13.702Z,1004.83
2023-04-02T11:15:13.826Z,1004.82
2023-04-02T11:16:14.263Z,1004.80
2023-04-02T11:17:13.401Z,1004.84
2023-04-02T11:18:13.704Z,1004.83
2023-04-02T11:19:13.938Z,1004.88
2023-04-02T11:20:12.722Z,1004.85
2023-04-02T11:21:13.630Z,1004.87
2023-04-02T11:22:13.538Z,1004.93
2023-04-02T11:23:13.529Z,1004.96
2023-04-02T11:24:13.678Z,1004.96
2023-04-02T11:25:13.529Z,1005.01
2023-04-02T11:26:13.695Z,1005.02
2023-04-02T11:27:14.009Z,1005.03
2023-04-02T11:28:13.204Z,1005.01
2023-04-02T11:29:13.577Z,1005.06
2023-04-02T11:30:13.413Z,1005.03
2023-04-02T11:31:13.725Z,1005.13
2023-04-02T11:32:13.882Z,1005.09
2023-04-02T11:33:14.434Z,1005.17
2023-04-02T11:34:13.744Z,1005.17
2023-04-02T11:35:13.604Z,1005.18
2023-04-02T11:36:13.938Z,1005.24
2023-04-02T11:37:12.834Z,1005.25
2023-04-02T11:38:14.074Z,1005.29
2023-04-02T11:39:17.457Z,1005.31
2023-04-02T11:40:14.164Z,1005.33
2023-04-02T11:41:13.332Z,1005.34
2023-04-02T11:42:13.334Z,1005.36
2023-04-02T11:43:13.148Z,1005.34
2023-04-02T11:44:13.101Z,1005.43
2023-04-02T11:45:13.248Z,1005.35
2023-04-02T11:46:13.644Z,1005.46
2023-04-02T11:47:13.698Z,1005.45
2023-04-02T11:48:14.104Z,1005.45
2023-04-02T11:49:13.431Z,1005.53
2023-04-02T11:50:13.593Z,1005.49
2023-04-02T11:51:13.902Z,1005.50
2023-04-02T11:52:13.031Z,1005.48
2023-04-02T11:53:13.046Z,1005.47
2023-04-02T11:54:12.970Z,1005.51
2023-04-02T11:55:12.956Z,1005.52
2023-04-02T11:56:12.889Z,1005.51
2023-04-02T11:57:13.320Z,1005.55
2023-04-02T11:58:13.497Z,1005.52
2023-04-02T11:59:13.328Z,1005.53
2023-04-02T12:00:13.416Z,1005.54
2023-04-02T12:01:13.409Z,1005.54
2023-04-02T12:02:13.241Z,1005.61
2023-04-02T12:03:13.216Z,1005.60
2023-04-02T12:04:13.314Z,1005.58
2023-04-02T12:05:13.342Z,1005.62
2023-04-02T12:06:13.216Z,1005.60
2023-04-02T12:07:13.207Z,1005.68
2023-04-02T12:08:13.395Z,1005.62
2023-04-02T12:09:13.259Z,1005.62
2023-04-02T12:10:13.569Z,1005.67
2023-04-02T12:11:13.517Z,1005.65
2023-04-02T12:12:13.443Z,1005.69
2023-04-02T12:13:13.300Z,1005.67
2023-04-02T12:14:13.182Z,1005.74
2023-04-02T12:15:13.089Z,1005.70
2023-04-02T12:17:13.411Z,1005.69
2023-04-02T12:18:13.512Z,1005.73
2023-04-02T12:19:13.416Z,1005.76
2023-04-02T12:20:13.421Z,1005.78